createdAt,value
2018-07-06T00:00:29.102Z,99.90
2018-07-06T00:03:08.697Z,99.90
2018-07-06T00:05:48.282Z,99.90
2018-07-06T00:08:27.781Z,99.90
2018-07-06T00:11:07.327Z,99.90
2018-07-06T01:14:18.969Z,99.90
2018-07-06T01:16:58.565Z,99.90
2018-07-06T02:13:53.474Z,99.90
2018-07-06T02:16:32.993Z,99.90
2018-07-06T02:24:56.825Z,99.90
2018-07-06T02:27:36.350Z,99.90
2018-07-06T02:30:15.910Z,99.90
2018-07-06T02:32:55.433Z,99.90
2018-07-06T02:35:35.053Z,99.90
2018-07-06T02:38:14.554Z,99.90
2018-07-06T02:40:54.188Z,99.90
2018-07-06T02:43:33.705Z,99.90
2018-07-06T02:46:13.233Z,99.90
2018-07-06T02:48:52.788Z,99.90
2018-07-06T02:51:32.199Z,99.90
2018-07-06T02:54:11.666Z,99.90
2018-07-06T02:56:51.344Z,99.90
2018-07-06T02:59:30.953Z,99.90
2018-07-06T03:02:10.587Z,99.90
2018-07-06T03:04:50.193Z,99.90
2018-07-06T03:07:29.750Z,99.90
2018-07-06T03:10:09.363Z,99.90
2018-07-06T03:15:40.589Z,99.90
2018-07-06T03:18:23.766Z,99.90
2018-07-06T03:23:47.492Z,99.90
2018-07-06T03:26:27.007Z,99.90
2018-07-06T03:29:06.713Z,99.90
2018-07-06T03:31:46.290Z,99.90
2018-07-06T03:34:25.950Z,99.90
2018-07-06T03:37:05.527Z,99.90
2018-07-06T03:39:45.148Z,99.90
2018-07-06T03:42:24.841Z,99.90
2018-07-06T03:45:04.450Z,99.90
2018-07-06T03:47:44.021Z,99.90
2018-07-06T03:50:23.594Z,99.90
2018-07-06T03:53:03.129Z,99.90
2018-07-06T03:55:42.709Z,99.90
2018-07-06T03:58:22.349Z,99.90
2018-07-06T04:01:01.969Z,99.90
2018-07-06T04:03:41.501Z,99.90
2018-07-06T04:06:21.021Z,99.90
2018-07-06T04:09:00.508Z,99.90
2018-07-06T04:11:39.999Z,99.90
2018-07-06T04:14:19.425Z,99.90
2018-07-06T04:16:58.854Z,99.90
2018-07-06T04:25:23.470Z,99.90
2018-07-06T04:28:02.910Z,99.90
2018-07-06T04:30:42.355Z,99.90
2018-07-06T04:33:22.078Z,99.90
2018-07-06T04:36:01.673Z,99.90
2018-07-06T04:38:41.257Z,99.90
2018-07-06T04:41:20.909Z,99.90
2018-07-06T04:44:00.453Z,99.90
2018-07-06T04:46:40.118Z,99.90
2018-07-06T04:49:19.713Z,99.90
2018-07-06T04:51:59.390Z,99.90
2018-07-06T04:54:38.894Z,99.90
2018-07-06T04:57:18.394Z,99.90
2018-07-06T04:59:57.887Z,99.90
2018-07-06T05:02:37.290Z,99.90
2018-07-06T05:05:16.692Z,99.90
2018-07-06T05:07:56.281Z,99.90
2018-07-06T05:10:35.705Z,99.90
2018-07-06T05:13:15.262Z,99.90
2018-07-06T05:15:54.834Z,99.90
2018-07-06T05:27:05.640Z,99.90
2018-07-06T05:29:45.114Z,99.90
2018-07-06T05:32:24.647Z,99.90
2018-07-06T05:35:04.131Z,99.90
2018-07-06T05:37:43.656Z,99.90
2018-07-06T05:40:23.129Z,99.90
2018-07-06T05:43:02.535Z,99.90
2018-07-06T05:45:41.954Z,99.90
2018-07-06T05:48:21.376Z,99.90
2018-07-06T05:51:00.851Z,99.90
2018-07-06T05:53:40.402Z,99.90
2018-07-06T05:56:19.889Z,99.90
2018-07-06T05:58:59.565Z,99.90
2018-07-06T06:01:38.937Z,99.90
2018-07-06T06:04:18.457Z,99.90
2018-07-06T06:06:57.952Z,99.90
2018-07-06T06:09:26.254Z,99.90
2018-07-06T06:11:54.529Z,99.90
2018-07-06T06:14:23.481Z,99.90
2018-07-06T06:16:51.768Z,99.90
2018-07-06T06:19:20.047Z,99.90
2018-07-06T06:22:04.834Z,99.90
2018-07-06T06:27:25.866Z,99.90
2018-07-06T06:29:54.201Z,99.90
2018-07-06T06:32:22.561Z,99.90
2018-07-06T06:34:50.849Z,99.90
2018-07-06T06:37:19.150Z,99.90
2018-07-06T06:39:47.460Z,99.90
2018-07-06T06:42:15.771Z,99.90
2018-07-06T06:44:44.143Z,99.90
2018-07-06T06:47:12.410Z,99.90
2018-07-06T06:49:40.762Z,99.90
2018-07-06T06:52:09.046Z,99.90
2018-07-06T06:54:37.373Z,99.90
2018-07-06T06:57:05.666Z,99.90
2018-07-06T06:59:33.972Z,99.90
2018-07-06T07:02:02.268Z,99.90
2018-07-06T07:04:30.538Z,99.90
2018-07-06T07:06:58.825Z,99.90
2018-07-06T07:09:27.110Z,99.90
2018-07-06T07:11:55.413Z,99.90
2018-07-06T07:14:43.002Z,99.90
2018-07-06T07:25:50.361Z,99.90
2018-07-06T07:28:18.624Z,99.90
2018-07-06T07:30:46.914Z,99.90
2018-07-06T07:33:15.149Z,99.90
2018-07-06T07:35:43.451Z,99.90
2018-07-06T07:38:11.726Z,99.90
2018-07-06T07:40:40.022Z,99.90
2018-07-06T07:43:08.293Z,99.90
2018-07-06T07:45:36.573Z,99.90
2018-07-06T07:48:04.974Z,99.90
2018-07-06T07:50:33.256Z,99.90
2018-07-06T07:53:12.865Z,99.90
2018-07-06T07:55:41.438Z,99.90
2018-07-06T07:58:09.714Z,99.90
2018-07-06T08:00:38.059Z,99.90
2018-07-06T08:03:06.314Z,99.90
2018-07-06T08:05:34.603Z,99.90
2018-07-06T08:08:02.870Z,99.90
2018-07-06T08:10:31.134Z,99.90
2018-07-06T08:15:52.774Z,99.90
2018-07-06T08:18:21.090Z,99.90
2018-07-06T08:26:36.585Z,99.90
2018-07-06T08:29:04.974Z,99.90
2018-07-06T08:31:33.411Z,99.90
2018-07-06T08:34:13.049Z,99.90
2018-07-06T08:37:53.589Z,99.90
2018-07-06T08:40:22.821Z,99.90
2018-07-06T08:42:52.198Z,99.90
2018-07-06T08:45:20.469Z,99.90
2018-07-06T08:47:49.070Z,99.90
2018-07-06T08:50:17.399Z,99.90
2018-07-06T08:52:46.869Z,99.90
2018-07-06T08:55:15.141Z,99.90
2018-07-06T08:57:44.503Z,99.90
2018-07-06T09:00:13.055Z,99.90
2018-07-06T09:02:41.327Z,99.90
2018-07-06T09:05:10.124Z,99.90
2018-07-06T09:07:38.409Z,99.90
2018-07-06T09:10:06.861Z,99.90
2018-07-06T09:12:35.180Z,99.90
2018-07-06T10:12:48.041Z,99.90
2018-07-06T10:15:18.238Z,99.90
2018-07-06T10:17:46.541Z,99.90
2018-07-06T10:20:27.918Z,99.90
2018-07-06T10:25:48.698Z,99.90
2018-07-06T10:28:28.010Z,99.90
2018-07-06T10:31:04.774Z,99.90
2018-07-06T10:33:33.111Z,99.90
2018-07-06T10:36:01.442Z,99.90
2018-07-06T10:38:29.793Z,99.90
2018-07-06T10:40:58.093Z,99.90
2018-07-06T10:43:26.436Z,99.90
2018-07-06T10:45:54.759Z,99.90
2018-07-06T10:48:23.022Z,99.90
2018-07-06T10:50:51.318Z,99.90
2018-07-06T10:53:19.589Z,99.90
2018-07-06T10:55:47.850Z,99.90
2018-07-06T10:58:16.168Z,99.90
2018-07-06T11:00:44.483Z,99.90
2018-07-06T11:03:12.760Z,99.90
2018-07-06T11:05:41.057Z,99.90
2018-07-06T11:08:09.327Z,99.90
2018-07-06T11:10:37.619Z,99.90
2018-07-06T11:13:05.937Z,99.90
2018-07-06T11:18:34.929Z,99.90
2018-07-06T11:26:45.377Z,99.90
2018-07-06T11:29:13.701Z,99.90
2018-07-06T11:31:42.054Z,99.90
2018-07-06T11:34:10.381Z,99.90
2018-07-06T11:36:38.738Z,99.90
2018-07-06T11:39:07.531Z,99.90
2018-07-06T11:41:36.570Z,99.90
2018-07-06T11:44:04.946Z,99.90
2018-07-06T11:46:33.250Z,99.90
2018-07-06T11:49:01.616Z,99.90
2018-07-06T11:51:29.913Z,99.90
2018-07-06T11:53:58.393Z,99.90
2018-07-06T11:56:26.708Z,99.90
2018-07-06T11:58:54.992Z,99.90
2018-07-06T12:01:23.296Z,99.90
2018-07-06T12:03:51.621Z,99.90
2018-07-06T12:06:19.872Z,99.90
2018-07-06T12:08:48.170Z,99.90
2018-07-06T12:11:16.454Z,99.90
2018-07-06T12:16:37.373Z,99.90
2018-07-06T12:19:05.654Z,99.90
2018-07-06T12:21:33.963Z,99.90
2018-07-06T12:24:02.261Z,99.90
2018-07-06T12:26:30.522Z,99.90
2018-07-06T12:28:58.792Z,99.90
2018-07-06T12:31:27.078Z,99.90
2018-07-06T12:33:55.386Z,99.90
2018-07-06T12:36:23.735Z,99.90
2018-07-06T12:38:51.965Z,99.90
2018-07-06T12:41:20.278Z,99.90
2018-07-06T12:43:48.676Z,99.90
2018-07-06T12:46:16.978Z,99.90
2018-07-06T12:48:45.298Z,99.90
2018-07-06T12:51:13.577Z,99.90
2018-07-06T12:53:41.865Z,99.90
2018-07-06T12:56:10.121Z,98.20
2018-07-06T12:58:38.433Z,97.90
2018-07-06T13:01:06.722Z,94.10
2018-07-06T13:03:34.978Z,94.30
2018-07-06T13:06:03.265Z,94.60
2018-07-06T13:08:31.570Z,96.80
2018-07-06T13:10:59.871Z,97.20
2018-07-06T13:13:28.677Z,97.40
2018-07-06T13:15:56.962Z,98.80
2018-07-06T13:18:25.234Z,95.60
2018-07-06T13:21:23.466Z,96.40
2018-07-06T13:23:51.733Z,97.10
2018-07-06T13:26:20.039Z,97.60
2018-07-06T13:28:48.314Z,98.80
2018-07-06T13:31:16.583Z,98.90
2018-07-06T13:33:44.880Z,98.50
2018-07-06T13:36:13.243Z,97.70
2018-07-06T13:38:41.533Z,97.20
2018-07-06T13:41:09.838Z,97.40
2018-07-06T13:43:38.092Z,96.20
2018-07-06T13:46:06.381Z,94.20
2018-07-06T13:48:34.674Z,95.70
2018-07-06T13:51:02.953Z,96.50
2018-07-06T13:53:31.249Z,96.40
2018-07-06T13:55:59.538Z,96.30
2018-07-06T13:58:27.806Z,97.20
2018-07-06T14:00:56.086Z,96.40
2018-07-06T14:03:24.349Z,97.80
2018-07-06T14:05:52.662Z,97.30
2018-07-06T14:08:20.962Z,96.40
2018-07-06T14:10:49.263Z,96.70
2018-07-06T14:13:17.561Z,94.80
2018-07-06T14:18:38.559Z,95.50
2018-07-06T14:24:10.054Z,94.50
2018-07-06T15:18:18.687Z,92.00
2018-07-06T15:23:25.897Z,93.30
2018-07-06T15:25:54.237Z,93.40
2018-07-06T15:28:22.545Z,92.10
2018-07-06T15:30:50.878Z,92.50
2018-07-06T15:33:19.197Z,92.10
2018-07-06T15:35:47.561Z,94.00
2018-07-06T15:38:15.910Z,94.70
2018-07-06T15:40:44.348Z,94.50
2018-07-06T15:43:13.997Z,93.00
2018-07-06T15:45:42.310Z,92.90
2018-07-06T15:48:10.674Z,92.30
2018-07-06T15:50:39.251Z,90.40
2018-07-06T15:53:07.991Z,91.20
2018-07-06T15:55:36.881Z,92.80
2018-07-06T15:58:05.358Z,93.40
2018-07-06T16:00:33.670Z,92.40
2018-07-06T16:03:01.962Z,91.10
2018-07-06T16:05:30.267Z,91.40
2018-07-06T16:07:58.557Z,92.00
2018-07-06T16:10:27.770Z,91.40
2018-07-06T16:24:49.507Z,92.10
2018-07-06T16:27:20.035Z,93.20
2018-07-06T16:29:48.388Z,93.00
2018-07-06T16:32:16.755Z,93.00
2018-07-06T16:34:45.041Z,91.40
2018-07-06T16:37:13.346Z,90.90
2018-07-06T16:39:41.645Z,91.40
2018-07-06T16:42:09.982Z,93.40
2018-07-06T16:44:38.330Z,93.40
2018-07-06T16:47:06.653Z,93.40
2018-07-06T16:49:34.973Z,93.70
2018-07-06T16:52:03.366Z,93.70
2018-07-06T16:54:31.689Z,93.20
2018-07-06T16:56:59.965Z,93.90
2018-07-06T16:59:28.258Z,94.80
2018-07-06T17:01:56.533Z,95.80
2018-07-06T17:04:24.829Z,96.30
2018-07-06T17:06:53.101Z,97.30
2018-07-06T17:09:21.389Z,97.40
2018-07-06T17:11:49.666Z,97.40
2018-07-06T17:17:11.345Z,97.60
2018-07-06T18:20:18.989Z,99.90
2018-07-06T18:22:55.957Z,99.90
2018-07-06T18:25:24.730Z,99.90
2018-07-06T18:27:53.074Z,99.90
2018-07-06T18:30:21.403Z,99.90
2018-07-06T18:32:49.745Z,99.90
2018-07-06T18:35:18.045Z,99.90
2018-07-06T18:37:46.563Z,99.90
2018-07-06T18:40:14.888Z,99.90
2018-07-06T18:42:43.240Z,99.90
2018-07-06T18:45:11.591Z,99.90
2018-07-06T18:47:40.020Z,99.90
2018-07-06T18:50:08.286Z,99.90
2018-07-06T18:52:36.609Z,99.90
2018-07-06T18:55:04.907Z,99.90
2018-07-06T18:57:33.219Z,99.90
2018-07-06T19:00:01.511Z,99.90
2018-07-06T19:02:29.806Z,99.90
2018-07-06T19:04:58.087Z,99.90
2018-07-06T19:07:26.381Z,99.90
2018-07-06T19:09:54.701Z,99.90
2018-07-06T19:12:22.981Z,99.90
2018-07-06T19:14:52.613Z,99.90
2018-07-06T19:17:20.897Z,99.90
2018-07-06T19:19:50.123Z,99.90
2018-07-06T19:22:19.117Z,99.90
2018-07-06T19:24:49.855Z,99.90
2018-07-06T19:27:18.245Z,99.90
2018-07-06T19:29:46.487Z,99.90
2018-07-06T19:32:14.791Z,99.90
2018-07-06T19:34:43.089Z,99.90
2018-07-06T19:37:11.377Z,99.90
2018-07-06T19:39:39.637Z,99.90
2018-07-06T19:42:07.905Z,99.90
2018-07-06T19:44:36.222Z,99.90
2018-07-06T19:47:04.518Z,99.90
2018-07-06T19:49:32.808Z,99.90
2018-07-06T19:52:01.091Z,99.90
2018-07-06T19:54:29.382Z,99.90
2018-07-06T19:56:57.665Z,99.90
2018-07-06T19:59:25.957Z,99.90
2018-07-06T20:01:54.264Z,99.90
2018-07-06T20:04:22.531Z,99.90
2018-07-06T20:06:50.805Z,99.90
2018-07-06T20:09:19.085Z,99.90
2018-07-06T20:11:47.390Z,99.90
2018-07-06T20:14:16.214Z,99.90
2018-07-06T20:16:44.512Z,99.90
2018-07-06T20:22:27.351Z,99.90
2018-07-06T21:19:26.679Z,99.90
2018-07-06T21:21:55.185Z,99.90
2018-07-06T21:24:23.637Z,99.90
2018-07-06T21:26:52.085Z,99.90
2018-07-06T21:29:20.438Z,99.90
2018-07-06T21:31:48.740Z,99.90
2018-07-06T21:34:17.582Z,99.90
2018-07-06T21:36:45.893Z,99.90
2018-07-06T21:39:14.555Z,99.90
2018-07-06T21:41:42.902Z,99.90
2018-07-06T21:44:11.237Z,99.90
2018-07-06T21:46:39.574Z,99.90
2018-07-06T21:49:07.925Z,99.90
2018-07-06T21:51:36.245Z,99.90
2018-07-06T21:54:04.511Z,99.90
2018-07-06T21:56:32.818Z,99.90
2018-07-06T21:59:01.098Z,99.90
2018-07-06T22:01:29.385Z,99.90
2018-07-06T22:03:57.703Z,99.90
2018-07-06T22:06:26.001Z,99.90
2018-07-06T22:08:54.289Z,99.90
2018-07-06T22:11:22.565Z,99.90
2018-07-06T22:19:39.838Z,99.90
2018-07-06T23:16:16.670Z,99.90
